sensor_id;sensor_type;location;lat;lon;timestamp;temperature;humidity
19999;DHT22;10160;50.926;4.374;2024-03-02T00:00:21;7.30;99.90
19999;DHT22;10160;50.926;4.374;2024-03-02T00:02:48;7.20;99.90
19999;DHT22;10160;50.926;4.374;2024-03-02T00:05:19;7.20;99.90
19999;DHT22;10160;50.926;4.374;2024-03-02T00:07:52;7.10;99.90
19999;DHT22;10160;50.926;4.374;2024-03-02T00:10:31;7.00;99.90
19999;DHT22;10160;50.926;4.374;2024-03-02T00:13:00;7.00;99.90
19999;DHT22;10160;50.926;4.374;2024-03-02T00:17:55;7.00;99.90
19999;DHT22;10160;50.926;4.374;2024-03-02T00:20:24;7.00;99.90
19999;DHT22;10160;50.926;4.374;2024-03-02T00:23:03;7.00;99.90
19999;DHT22;10160;50.926;4.374;2024-03-02T00:25:43;6.90;99.90
19999;DHT22;10160;50.926;4.374;2024-03-02T00:30:57;6.90;99.90
19999;DHT22;10160;50.926;4.374;2024-03-02T00:33:25;7.00;99.90
19999;DHT22;10160;50.926;4.374;2024-03-02T00:35:51;7.10;99.90
19999;DHT22;10160;50.926;4.374;2024-03-02T00:38:17;7.00;99.90
19999;DHT22;10160;50.926;4.374;2024-03-02T00:40:44;7.00;99.90
19999;DHT22;10160;50.926;4.374;2024-03-02T00:45:56;6.90;99.90
19999;DHT22;10160;50.926;4.374;2024-03-02T00:48:22;7.00;99.90
19999;DHT22;10160;50.926;4.374;2024-03-02T00:50:52;7.00;99.90
19999;DHT22;10160;50.926;4.374;2024-03-02T00:53:23;7.00;99.90
19999;DHT22;10160;50.926;4.374;2024-03-02T00:55:52;7.00;99.90
19999;DHT22;10160;50.926;4.374;2024-03-02T00:58:18;7.00;99.90
19999;DHT22;10160;50.926;4.374;2024-03-02T01:00:44;7.00;99.90
19999;DHT22;10160;50.926;4.374;2024-03-02T01:03:09;7.00;99.90
19999;DHT22;10160;50.926;4.374;2024-03-02T01:05:36;7.00;99.90
19999;DHT22;10160;50.926;4.374;2024-03-02T01:08:02;7.00;99.90
19999;DHT22;10160;50.926;4.374;2024-03-02T01:10:27;6.90;99.90
19999;DHT22;10160;50.926;4.374;2024-03-02T01:12:53;7.00;99.90
19999;DHT22;10160;50.926;4.374;2024-03-02T01:15:19;7.00;99.90
19999;DHT22;10160;50.926;4.374;2024-03-02T01:17:45;7.00;99.90
19999;DHT22;10160;50.926;4.374;2024-03-02T01:20:11;7.10;99.90
19999;DHT22;10160;50.926;4.374;2024-03-02T01:22:36;7.10;99.90
19999;DHT22;10160;50.926;4.374;2024-03-02T01:25:03;7.10;99.90
19999;DHT22;10160;50.926;4.374;2024-03-02T01:27:29;7.10;99.90
19999;DHT22;10160;50.926;4.374;2024-03-02T01:29:54;7.10;99.90
19999;DHT22;10160;50.926;4.374;2024-03-02T01:32:20;7.20;99.90
19999;DHT22;10160;50.926;4.374;2024-03-02T01:34:46;7.20;99.90
19999;DHT22;10160;50.926;4.374;2024-03-02T01:37:12;7.30;99.90
19999;DHT22;10160;50.926;4.374;2024-03-02T01:39:37;7.30;99.90
19999;DHT22;10160;50.926;4.374;2024-03-02T01:42:03;7.30;99.90
19999;DHT22;10160;50.926;4.374;2024-03-02T01:44:29;7.40;99.90
19999;DHT22;10160;50.926;4.374;2024-03-02T01:46:54;7.20;99.90
19999;DHT22;10160;50.926;4.374;2024-03-02T01:49:24;7.10;99.90
19999;DHT22;10160;50.926;4.374;2024-03-02T01:51:49;7.10;99.90
19999;DHT22;10160;50.926;4.374;2024-03-02T01:54:15;7.20;99.90
19999;DHT22;10160;50.926;4.374;2024-03-02T01:56:40;7.20;99.90
19999;DHT22;10160;50.926;4.374;2024-03-02T01:59:06;7.10;99.90
19999;DHT22;10160;50.926;4.374;2024-03-02T02:01:32;7.20;99.90
19999;DHT22;10160;50.926;4.374;2024-03-02T02:03:57;7.10;99.90
19999;DHT22;10160;50.926;4.374;2024-03-02T02:06:23;7.20;99.90
19999;DHT22;10160;50.926;4.374;2024-03-02T02:08:49;7.30;99.90
19999;DHT22;10160;50.926;4.374;2024-03-02T02:11:15;7.30;99.90
19999;DHT22;10160;50.926;4.374;2024-03-02T02:13:41;7.30;99.90
19999;DHT22;10160;50.926;4.374;2024-03-02T02:16:07;7.30;99.90
19999;DHT22;10160;50.926;4.374;2024-03-02T02:18:33;7.20;99.90
19999;DHT22;10160;50.926;4.374;2024-03-02T02:20:59;7.20;99.90
19999;DHT22;10160;50.926;4.374;2024-03-02T02:23:25;7.20;99.90
19999;DHT22;10160;50.926;4.374;2024-03-02T02:25:50;7.30;99.90
19999;DHT22;10160;50.926;4.374;2024-03-02T02:28:16;7.40;99.90
19999;DHT22;10160;50.926;4.374;2024-03-02T02:30:42;7.30;99.90
19999;DHT22;10160;50.926;4.374;2024-03-02T02:33:08;7.30;99.90
19999;DHT22;10160;50.926;4.374;2024-03-02T02:35:34;7.40;99.90
19999;DHT22;10160;50.926;4.374;2024-03-02T02:38:00;7.30;99.90
19999;DHT22;10160;50.926;4.374;2024-03-02T02:40:26;7.40;99.90
19999;DHT22;10160;50.926;4.374;2024-03-02T02:42:52;7.40;99.90
19999;DHT22;10160;50.926;4.374;2024-03-02T02:45:18;7.40;99.90
19999;DHT22;10160;50.926;4.374;2024-03-02T02:47:44;7.50;99.90
19999;DHT22;10160;50.926;4.374;2024-03-02T02:50:11;7.40;99.90
19999;DHT22;10160;50.926;4.374;2024-03-02T02:52:39;7.40;99.90
19999;DHT22;10160;50.926;4.374;2024-03-02T02:55:09;7.40;99.90
19999;DHT22;10160;50.926;4.374;2024-03-02T02:57:36;7.50;99.90
19999;DHT22;10160;50.926;4.374;2024-03-02T03:00:07;7.30;99.90
19999;DHT22;10160;50.926;4.374;2024-03-02T03:02:39;7.20;99.90
19999;DHT22;10160;50.926;4.374;2024-03-02T03:05:07;7.30;99.90
19999;DHT22;10160;50.926;4.374;2024-03-02T03:07:33;7.10;99.90
19999;DHT22;10160;50.926;4.374;2024-03-02T03:10:00;7.10;99.90
19999;DHT22;10160;50.926;4.374;2024-03-02T03:12:26;7.20;99.90
19999;DHT22;10160;50.926;4.374;2024-03-02T03:14:51;7.30;99.90
19999;DHT22;10160;50.926;4.374;2024-03-02T03:17:17;7.10;99.90
19999;DHT22;10160;50.926;4.374;2024-03-02T03:19:43;7.10;99.90
19999;DHT22;10160;50.926;4.374;2024-03-02T03:22:09;7.10;99.90
19999;DHT22;10160;50.926;4.374;2024-03-02T03:24:35;7.20;99.90
19999;DHT22;10160;50.926;4.374;2024-03-02T03:27:00;7.20;99.90
19999;DHT22;10160;50.926;4.374;2024-03-02T03:29:26;7.10;99.90
19999;DHT22;10160;50.926;4.374;2024-03-02T03:31:52;7.10;99.90
19999;DHT22;10160;50.926;4.374;2024-03-02T03:34:17;6.90;99.90
19999;DHT22;10160;50.926;4.374;2024-03-02T03:36:43;6.90;99.90
19999;DHT22;10160;50.926;4.374;2024-03-02T03:39:09;6.80;99.90
19999;DHT22;10160;50.926;4.374;2024-03-02T03:41:34;6.90;99.90
19999;DHT22;10160;50.926;4.374;2024-03-02T03:44:00;6.90;99.90
19999;DHT22;10160;50.926;4.374;2024-03-02T03:46:25;6.80;99.90
19999;DHT22;10160;50.926;4.374;2024-03-02T03:48:51;6.80;99.90
19999;DHT22;10160;50.926;4.374;2024-03-02T03:51:16;6.90;99.90
19999;DHT22;10160;50.926;4.374;2024-03-02T03:53:42;7.00;99.90
19999;DHT22;10160;50.926;4.374;2024-03-02T03:56:08;7.20;99.90
19999;DHT22;10160;50.926;4.374;2024-03-02T03:58:33;7.20;99.90
19999;DHT22;10160;50.926;4.374;2024-03-02T04:00:59;7.10;99.90
19999;DHT22;10160;50.926;4.374;2024-03-02T04:03:24;7.10;99.90
19999;DHT22;10160;50.926;4.374;2024-03-02T04:05:50;7.10;99.90
19999;DHT22;10160;50.926;4.374;2024-03-02T04:08:16;7.10;99.90
19999;DHT22;10160;50.926;4.374;2024-03-02T04:10:42;7.10;99.90
19999;DHT22;10160;50.926;4.374;2024-03-02T04:13:08;7.00;99.90
19999;DHT22;10160;50.926;4.374;2024-03-02T04:15:33;7.00;99.90
19999;DHT22;10160;50.926;4.374;2024-03-02T04:17:59;7.10;99.90
19999;DHT22;10160;50.926;4.374;2024-03-02T04:20:24;7.10;99.90
19999;DHT22;10160;50.926;4.374;2024-03-02T04:22:50;7.10;99.90
19999;DHT22;10160;50.926;4.374;2024-03-02T04:25:16;7.00;99.90
19999;DHT22;10160;50.926;4.374;2024-03-02T04:27:42;7.00;99.90
19999;DHT22;10160;50.926;4.374;2024-03-02T04:30:07;7.00;99.90
19999;DHT22;10160;50.926;4.374;2024-03-02T04:32:33;7.00;99.90
19999;DHT22;10160;50.926;4.374;2024-03-02T04:34:59;7.00;99.90
19999;DHT22;10160;50.926;4.374;2024-03-02T04:37:25;7.00;99.90
19999;DHT22;10160;50.926;4.374;2024-03-02T04:39:50;7.00;99.90
19999;DHT22;10160;50.926;4.374;2024-03-02T04:42:16;7.10;99.90
19999;DHT22;10160;50.926;4.374;2024-03-02T04:44:41;7.00;99.90
19999;DHT22;10160;50.926;4.374;2024-03-02T04:47:07;7.00;99.90
19999;DHT22;10160;50.926;4.374;2024-03-02T04:49:33;7.10;99.90
19999;DHT22;10160;50.926;4.374;2024-03-02T04:51:58;7.20;99.90
19999;DHT22;10160;50.926;4.374;2024-03-02T04:54:24;7.10;99.90
19999;DHT22;10160;50.926;4.374;2024-03-02T04:56:49;7.00;99.90
19999;DHT22;10160;50.926;4.374;2024-03-02T04:59:16;7.00;99.90
19999;DHT22;10160;50.926;4.374;2024-03-02T05:01:42;6.90;99.90
19999;DHT22;10160;50.926;4.374;2024-03-02T05:04:08;7.00;99.90
19999;DHT22;10160;50.926;4.374;2024-03-02T05:06:37;7.00;99.90
19999;DHT22;10160;50.926;4.374;2024-03-02T05:09:03;7.00;99.90
19999;DHT22;10160;50.926;4.374;2024-03-02T05:11:29;7.00;99.90
19999;DHT22;10160;50.926;4.374;2024-03-02T05:14:21;7.10;99.90
19999;DHT22;10160;50.926;4.374;2024-03-02T05:16:46;7.10;99.90
19999;DHT22;10160;50.926;4.374;2024-03-02T05:19:12;7.10;99.90
19999;DHT22;10160;50.926;4.374;2024-03-02T05:21:37;7.10;99.90
19999;DHT22;10160;50.926;4.374;2024-03-02T05:24:03;7.00;99.90
19999;DHT22;10160;50.926;4.374;2024-03-02T05:26:29;6.90;99.90
19999;DHT22;10160;50.926;4.374;2024-03-02T05:28:54;7.10;99.90
19999;DHT22;10160;50.926;4.374;2024-03-02T05:31:20;6.90;99.90
19999;DHT22;10160;50.926;4.374;2024-03-02T05:33:45;6.80;99.90
19999;DHT22;10160;50.926;4.374;2024-03-02T05:36:11;6.80;99.90
19999;DHT22;10160;50.926;4.374;2024-03-02T05:38:37;6.80;99.90
19999;DHT22;10160;50.926;4.374;2024-03-02T05:41:03;6.70;99.90
19999;DHT22;10160;50.926;4.374;2024-03-02T05:43:28;6.60;99.90
19999;DHT22;10160;50.926;4.374;2024-03-02T05:45:54;6.70;99.90
19999;DHT22;10160;50.926;4.374;2024-03-02T05:48:20;6.80;99.90
19999;DHT22;10160;50.926;4.374;2024-03-02T05:50:45;6.60;99.90
19999;DHT22;10160;50.926;4.374;2024-03-02T05:53:11;6.50;99.90
19999;DHT22;10160;50.926;4.374;2024-03-02T05:55:37;6.50;99.90
19999;DHT22;10160;50.926;4.374;2024-03-02T05:58:02;6.50;99.90
19999;DHT22;10160;50.926;4.374;2024-03-02T06:00:31;6.50;99.90
19999;DHT22;10160;50.926;4.374;2024-03-02T06:02:56;6.50;99.90
19999;DHT22;10160;50.926;4.374;2024-03-02T06:05:22;6.50;99.90
19999;DHT22;10160;50.926;4.374;2024-03-02T06:07:48;6.60;99.90
19999;DHT22;10160;50.926;4.374;2024-03-02T06:10:13;6.50;99.90
19999;DHT22;10160;50.926;4.374;2024-03-02T06:12:40;6.50;99.90
19999;DHT22;10160;50.926;4.374;2024-03-02T06:15:06;6.50;99.90
19999;DHT22;10160;50.926;4.374;2024-03-02T06:17:32;6.50;99.90
19999;DHT22;10160;50.926;4.374;2024-03-02T06:19:57;6.50;99.90
19999;DHT22;10160;50.926;4.374;2024-03-02T06:22:23;6.50;99.90
19999;DHT22;10160;50.926;4.374;2024-03-02T06:24:50;6.50;99.90
19999;DHT22;10160;50.926;4.374;2024-03-02T06:27:16;6.40;99.90
19999;DHT22;10160;50.926;4.374;2024-03-02T06:29:42;6.50;99.90
19999;DHT22;10160;50.926;4.374;2024-03-02T06:32:08;6.40;99.90
19999;DHT22;10160;50.926;4.374;2024-03-02T06:34:33;6.40;99.90
19999;DHT22;10160;50.926;4.374;2024-03-02T06:36:59;6.50;99.90
19999;DHT22;10160;50.926;4.374;2024-03-02T06:39:24;6.40;99.90
19999;DHT22;10160;50.926;4.374;2024-03-02T06:41:51;6.50;99.90
19999;DHT22;10160;50.926;4.374;2024-03-02T06:44:17;6.50;99.90
19999;DHT22;10160;50.926;4.374;2024-03-02T06:46:43;6.50;99.90
19999;DHT22;10160;50.926;4.374;2024-03-02T06:49:08;6.60;99.90
19999;DHT22;10160;50.926;4.374;2024-03-02T06:51:36;6.50;99.90
19999;DHT22;10160;50.926;4.374;2024-03-02T06:54:02;6.50;99.90
19999;DHT22;10160;50.926;4.374;2024-03-02T06:56:30;6.50;99.90
19999;DHT22;10160;50.926;4.374;2024-03-02T06:58:58;6.60;99.90
19999;DHT22;10160;50.926;4.374;2024-03-02T07:01:23;6.70;99.90
19999;DHT22;10160;50.926;4.374;2024-03-02T07:03:51;6.70;99.90
19999;DHT22;10160;50.926;4.374;2024-03-02T07:06:17;6.90;99.90
19999;DHT22;10160;50.926;4.374;2024-03-02T07:08:43;7.00;99.90
19999;DHT22;10160;50.926;4.374;2024-03-02T07:11:08;7.20;99.90
19999;DHT22;10160;50.926;4.374;2024-03-02T07:13:35;7.40;99.90
19999;DHT22;10160;50.926;4.374;2024-03-02T07:16:01;7.60;99.90
19999;DHT22;10160;50.926;4.374;2024-03-02T07:18:30;7.80;99.90
19999;DHT22;10160;50.926;4.374;2024-03-02T07:20:56;7.70;99.90
19999;DHT22;10160;50.926;4.374;2024-03-02T07:23:24;7.60;99.90
19999;DHT22;10160;50.926;4.374;2024-03-02T07:25:53;7.90;99.90
19999;DHT22;10160;50.926;4.374;2024-03-02T07:28:27;7.90;99.90
19999;DHT22;10160;50.926;4.374;2024-03-02T07:31:04;7.80;99.90
19999;DHT22;10160;50.926;4.374;2024-03-02T07:33:30;7.90;99.90
19999;DHT22;10160;50.926;4.374;2024-03-02T07:35:57;7.90;99.90
19999;DHT22;10160;50.926;4.374;2024-03-02T07:38:24;8.10;99.90
19999;DHT22;10160;50.926;4.374;2024-03-02T07:40:50;8.30;99.90
19999;DHT22;10160;50.926;4.374;2024-03-02T07:43:17;8.20;99.90
19999;DHT22;10160;50.926;4.374;2024-03-02T07:45:43;8.00;99.90
19999;DHT22;10160;50.926;4.374;2024-03-02T07:48:09;8.20;99.90
19999;DHT22;10160;50.926;4.374;2024-03-02T07:50:35;8.30;99.90
19999;DHT22;10160;50.926;4.374;2024-03-02T07:53:04;8.50;99.90
19999;DHT22;10160;50.926;4.374;2024-03-02T07:55:30;8.50;99.90
19999;DHT22;10160;50.926;4.374;2024-03-02T07:57:56;8.80;99.90
19999;DHT22;10160;50.926;4.374;2024-03-02T08:00:23;8.80;99.90
19999;DHT22;10160;50.926;4.374;2024-03-02T08:02:52;8.80;99.90
19999;DHT22;10160;50.926;4.374;2024-03-02T08:05:18;8.60;99.90
19999;DHT22;10160;50.926;4.374;2024-03-02T08:07:46;8.40;99.90
19999;DHT22;10160;50.926;4.374;2024-03-02T08:10:13;8.10;99.90
19999;DHT22;10160;50.926;4.374;2024-03-02T08:12:39;8.20;99.90
19999;DHT22;10160;50.926;4.374;2024-03-02T08:15:06;8.20;99.90
19999;DHT22;10160;50.926;4.374;2024-03-02T08:17:31;8.20;99.90
19999;DHT22;10160;50.926;4.374;2024-03-02T08:19:58;8.20;99.90
19999;DHT22;10160;50.926;4.374;2024-03-02T08:22:23;8.20;99.90
19999;DHT22;10160;50.926;4.374;2024-03-02T08:24:52;8.30;99.90
19999;DHT22;10160;50.926;4.374;2024-03-02T08:27:18;8.40;99.90
19999;DHT22;10160;50.926;4.374;2024-03-02T08:29:44;8.70;99.90
19999;DHT22;10160;50.926;4.374;2024-03-02T08:32:09;8.70;99.90
19999;DHT22;10160;50.926;4.374;2024-03-02T08:34:35;9.00;99.90
19999;DHT22;10160;50.926;4.374;2024-03-02T08:37:04;9.20;99.90
19999;DHT22;10160;50.926;4.374;2024-03-02T08:39:30;9.30;99.90
19999;DHT22;10160;50.926;4.374;2024-03-02T08:41:56;9.40;99.90
19999;DHT22;10160;50.926;4.374;2024-03-02T08:44:21;9.30;99.90
19999;DHT22;10160;50.926;4.374;2024-03-02T08:46:47;9.30;99.90
19999;DHT22;10160;50.926;4.374;2024-03-02T08:49:13;9.20;99.90
19999;DHT22;10160;50.926;4.374;2024-03-02T08:51:38;9.20;99.90
19999;DHT22;10160;50.926;4.374;2024-03-02T08:54:04;9.30;99.90
19999;DHT22;10160;50.926;4.374;2024-03-02T08:56:31;9.30;99.90
19999;DHT22;10160;50.926;4.374;2024-03-02T08:58:57;9.40;99.90
19999;DHT22;10160;50.926;4.374;2024-03-02T09:01:23;9.30;99.90
19999;DHT22;10160;50.926;4.374;2024-03-02T09:03:48;9.30;99.90
19999;DHT22;10160;50.926;4.374;2024-03-02T09:06:17;9.50;99.90
19999;DHT22;10160;50.926;4.374;2024-03-02T09:08:43;9.70;99.90
19999;DHT22;10160;50.926;4.374;2024-03-02T09:11:10;9.60;99.90
19999;DHT22;10160;50.926;4.374;2024-03-02T09:13:36;9.50;99.90
19999;DHT22;10160;50.926;4.374;2024-03-02T09:16:03;9.70;99.90
19999;DHT22;10160;50.926;4.374;2024-03-02T09:18:29;9.90;99.90
19999;DHT22;10160;50.926;4.374;2024-03-02T09:20:55;10.10;99.90
19999;DHT22;10160;50.926;4.374;2024-03-02T09:23:21;10.20;99.90
19999;DHT22;10160;50.926;4.374;2024-03-02T09:25:46;10.60;99.90
19999;DHT22;10160;50.926;4.374;2024-03-02T09:28:12;10.80;99.90
19999;DHT22;10160;50.926;4.374;2024-03-02T09:30:38;10.70;99.90
19999;DHT22;10160;50.926;4.374;2024-03-02T09:33:04;10.90;99.90
19999;DHT22;10160;50.926;4.374;2024-03-02T09:35:29;11.20;99.90
19999;DHT22;10160;50.926;4.374;2024-03-02T09:37:56;10.90;99.90
19999;DHT22;10160;50.926;4.374;2024-03-02T09:40:22;10.50;99.90
19999;DHT22;10160;50.926;4.374;2024-03-02T09:42:48;10.80;99.90
19999;DHT22;10160;50.926;4.374;2024-03-02T09:45:23;10.80;99.90
19999;DHT22;10160;50.926;4.374;2024-03-02T09:47:49;10.60;99.90
19999;DHT22;10160;50.926;4.374;2024-03-02T09:50:15;10.40;99.90
19999;DHT22;10160;50.926;4.374;2024-03-02T09:52:42;10.50;99.90
19999;DHT22;10160;50.926;4.374;2024-03-02T09:55:08;10.40;99.90
19999;DHT22;10160;50.926;4.374;2024-03-02T09:57:34;10.60;99.90
19999;DHT22;10160;50.926;4.374;2024-03-02T10:00:00;10.60;99.90
19999;DHT22;10160;50.926;4.374;2024-03-02T10:02:26;10.70;99.90
19999;DHT22;10160;50.926;4.374;2024-03-02T10:04:51;11.20;99.90
19999;DHT22;10160;50.926;4.374;2024-03-02T10:07:18;11.60;99.90
19999;DHT22;10160;50.926;4.374;2024-03-02T10:09:46;11.60;99.90
19999;DHT22;10160;50.926;4.374;2024-03-02T10:12:14;12.00;99.90
19999;DHT22;10160;50.926;4.374;2024-03-02T10:14:40;11.80;99.90
19999;DHT22;10160;50.926;4.374;2024-03-02T10:17:08;12.00;99.90
19999;DHT22;10160;50.926;4.374;2024-03-02T10:19:35;12.30;99.90
19999;DHT22;10160;50.926;4.374;2024-03-02T10:22:03;13.20;99.90
19999;DHT22;10160;50.926;4.374;2024-03-02T10:24:49;14.30;99.90
19999;DHT22;10160;50.926;4.374;2024-03-02T10:27:23;13.80;99.90
19999;DHT22;10160;50.926;4.374;2024-03-02T10:29:49;13.60;99.90
19999;DHT22;10160;50.926;4.374;2024-03-02T10:32:15;13.90;99.90
19999;DHT22;10160;50.926;4.374;2024-03-02T10:34:43;14.40;99.90
19999;DHT22;10160;50.926;4.374;2024-03-02T10:37:11;14.60;99.90
19999;DHT22;10160;50.926;4.374;2024-03-02T10:39:37;14.00;99.90
19999;DHT22;10160;50.926;4.374;2024-03-02T10:42:05;13.70;99.90
19999;DHT22;10160;50.926;4.374;2024-03-02T10:44:31;14.10;99.90
19999;DHT22;10160;50.926;4.374;2024-03-02T10:47:01;14.90;99.90
19999;DHT22;10160;50.926;4.374;2024-03-02T10:49:29;15.00;99.90
19999;DHT22;10160;50.926;4.374;2024-03-02T10:51:55;14.60;99.90
19999;DHT22;10160;50.926;4.374;2024-03-02T10:54:21;15.60;99.90
19999;DHT22;10160;50.926;4.374;2024-03-02T10:56:53;16.20;99.90
19999;DHT22;10160;50.926;4.374;2024-03-02T11:01:56;14.50;99.90
19999;DHT22;10160;50.926;4.374;2024-03-02T11:04:24;13.80;99.90
19999;DHT22;10160;50.926;4.374;2024-03-02T11:06:51;13.30;99.90
19999;DHT22;10160;50.926;4.374;2024-03-02T11:09:20;13.00;99.90
19999;DHT22;10160;50.926;4.374;2024-03-02T11:11:54;12.50;99.90
19999;DHT22;10160;50.926;4.374;2024-03-02T11:14:24;12.50;99.90
19999;DHT22;10160;50.926;4.374;2024-03-02T11:16:51;12.80;99.90
19999;DHT22;10160;50.926;4.374;2024-03-02T11:19:18;13.00;99.90
19999;DHT22;10160;50.926;4.374;2024-03-02T11:21:44;12.60;99.90
19999;DHT22;10160;50.926;4.374;2024-03-02T11:27:05;12.60;99.90
19999;DHT22;10160;50.926;4.374;2024-03-02T11:34:41;12.30;99.90
19999;DHT22;10160;50.926;4.374;2024-03-02T11:37:11;12.00;99.90
19999;DHT22;10160;50.926;4.374;2024-03-02T11:39:38;11.90;99.90
19999;DHT22;10160;50.926;4.374;2024-03-02T11:42:09;11.90;99.90
19999;DHT22;10160;50.926;4.374;2024-03-02T11:44:36;12.00;99.90
19999;DHT22;10160;50.926;4.374;2024-03-02T11:47:08;12.00;99.90
19999;DHT22;10160;50.926;4.374;2024-03-02T11:49:51;12.10;99.90
19999;DHT22;10160;50.926;4.374;2024-03-02T11:52:20;12.20;99.90
19999;DHT22;10160;50.926;4.374;2024-03-02T11:54:47;12.30;99.90
19999;DHT22;10160;50.926;4.374;2024-03-02T11:57:21;12.40;99.90
19999;DHT22;10160;50.926;4.374;2024-03-02T11:59:51;12.70;99.90
19999;DHT22;10160;50.926;4.374;2024-03-02T12:02:21;13.10;99.90
19999;DHT22;10160;50.926;4.374;2024-03-02T12:04:48;13.60;99.90
19999;DHT22;10160;50.926;4.374;2024-03-02T12:07:22;13.90;99.90
19999;DHT22;10160;50.926;4.374;2024-03-02T12:09:48;15.50;99.90
19999;DHT22;10160;50.926;4.374;2024-03-02T12:12:14;16.00;99.90
19999;DHT22;10160;50.926;4.374;2024-03-02T12:14:51;14.70;99.90
19999;DHT22;10160;50.926;4.374;2024-03-02T12:17:17;14.40;99.90
19999;DHT22;10160;50.926;4.374;2024-03-02T12:19:43;14.00;99.90
19999;DHT22;10160;50.926;4.374;2024-03-02T12:22:09;13.60;99.90
19999;DHT22;10160;50.926;4.374;2024-03-02T12:24:35;13.20;99.90
19999;DHT22;10160;50.926;4.374;2024-03-02T12:27:03;13.10;99.90
19999;DHT22;10160;50.926;4.374;2024-03-02T12:29:29;13.10;99.90
19999;DHT22;10160;50.926;4.374;2024-03-02T12:31:55;13.50;99.90
19999;DHT22;10160;50.926;4.374;2024-03-02T12:34:21;14.10;99.90
19999;DHT22;10160;50.926;4.374;2024-03-02T12:36:47;14.60;99.90
19999;DHT22;10160;50.926;4.374;2024-03-02T12:39:16;15.00;99.90
19999;DHT22;10160;50.926;4.374;2024-03-02T12:41:42;15.20;99.90
19999;DHT22;10160;50.926;4.374;2024-03-02T12:44:08;14.60;99.90
19999;DHT22;10160;50.926;4.374;2024-03-02T12:46:34;14.60;99.90
19999;DHT22;10160;50.926;4.374;2024-03-02T12:49:11;15.00;99.90
19999;DHT22;10160;50.926;4.374;2024-03-02T12:51:39;14.90;99.90
19999;DHT22;10160;50.926;4.374;2024-03-02T12:54:07;14.70;99.90
19999;DHT22;10160;50.926;4.374;2024-03-02T12:56:33;14.50;99.90
19999;DHT22;10160;50.926;4.374;2024-03-02T12:58:59;14.40;99.90
19999;DHT22;10160;50.926;4.374;2024-03-02T13:01:25;14.50;99.90
19999;DHT22;10160;50.926;4.374;2024-03-02T13:03:52;14.80;99.90
19999;DHT22;10160;50.926;4.374;2024-03-02T13:06:19;15.10;99.90
19999;DHT22;10160;50.926;4.374;2024-03-02T13:08:45;15.00;99.90
19999;DHT22;10160;50.926;4.374;2024-03-02T13:11:13;15.00;99.90
19999;DHT22;10160;50.926;4.374;2024-03-02T13:13:42;14.30;99.90
19999;DHT22;10160;50.926;4.374;2024-03-02T13:16:09;14.00;99.90
19999;DHT22;10160;50.926;4.374;2024-03-02T13:18:36;13.70;99.90
19999;DHT22;10160;50.926;4.374;2024-03-02T13:21:01;13.50;99.90
19999;DHT22;10160;50.926;4.374;2024-03-02T13:23:27;13.50;99.90
19999;DHT22;10160;50.926;4.374;2024-03-02T13:25:56;13.30;99.90
19999;DHT22;10160;50.926;4.374;2024-03-02T13:28:22;13.20;99.90
19999;DHT22;10160;50.926;4.374;2024-03-02T13:30:47;13.10;99.90
19999;DHT22;10160;50.926;4.374;2024-03-02T13:33:13;13.00;99.90
19999;DHT22;10160;50.926;4.374;2024-03-02T13:35:39;13.00;99.90
19999;DHT22;10160;50.926;4.374;2024-03-02T13:38:04;13.20;99.90
19999;DHT22;10160;50.926;4.374;2024-03-02T13:40:30;13.20;99.90
19999;DHT22;10160;50.926;4.374;2024-03-02T13:43:01;13.30;99.90
19999;DHT22;10160;50.926;4.374;2024-03-02T13:45:27;13.20;99.90
19999;DHT22;10160;50.926;4.374;2024-03-02T13:47:53;13.00;99.90
19999;DHT22;10160;50.926;4.374;2024-03-02T13:50:19;13.10;99.90
19999;DHT22;10160;50.926;4.374;2024-03-02T13:52:45;13.20;99.90
19999;DHT22;10160;50.926;4.374;2024-03-02T13:55:11;13.30;99.90
19999;DHT22;10160;50.926;4.374;2024-03-02T13:57:36;13.30;99.90
19999;DHT22;10160;50.926;4.374;2024-03-02T14:00:02;13.30;99.90
19999;DHT22;10160;50.926;4.374;2024-03-02T14:02:28;13.40;99.90
19999;DHT22;10160;50.926;4.374;2024-03-02T14:04:54;13.50;99.90
19999;DHT22;10160;50.926;4.374;2024-03-02T14:07:20;13.50;99.90
19999;DHT22;10160;50.926;4.374;2024-03-02T14:09:46;13.50;99.90
19999;DHT22;10160;50.926;4.374;2024-03-02T14:12:12;13.20;99.90
19999;DHT22;10160;50.926;4.374;2024-03-02T14:14:39;13.10;99.90
19999;DHT22;10160;50.926;4.374;2024-03-02T14:17:04;13.10;99.90
19999;DHT22;10160;50.926;4.374;2024-03-02T14:19:31;13.10;99.90
19999;DHT22;10160;50.926;4.374;2024-03-02T14:21:57;13.10;99.90
19999;DHT22;10160;50.926;4.374;2024-03-02T14:24:23;13.10;99.90
19999;DHT22;10160;50.926;4.374;2024-03-02T14:26:53;12.90;99.90
19999;DHT22;10160;50.926;4.374;2024-03-02T14:29:19;12.90;99.90
19999;DHT22;10160;50.926;4.374;2024-03-02T14:31:44;12.90;99.90
19999;DHT22;10160;50.926;4.374;2024-03-02T14:34:13;13.00;99.90
19999;DHT22;10160;50.926;4.374;2024-03-02T14:36:39;12.80;99.90
19999;DHT22;10160;50.926;4.374;2024-03-02T14:39:05;12.60;99.90
19999;DHT22;10160;50.926;4.374;2024-03-02T14:41:35;12.50;99.90
19999;DHT22;10160;50.926;4.374;2024-03-02T14:44:01;12.50;99.90
19999;DHT22;10160;50.926;4.374;2024-03-02T14:46:27;12.30;99.90
19999;DHT22;10160;50.926;4.374;2024-03-02T14:48:53;12.50;99.90
19999;DHT22;10160;50.926;4.374;2024-03-02T14:51:18;12.50;99.90
19999;DHT22;10160;50.926;4.374;2024-03-02T14:53:44;12.60;99.90
19999;DHT22;10160;50.926;4.374;2024-03-02T14:56:09;12.60;99.90
19999;DHT22;10160;50.926;4.374;2024-03-02T14:58:35;12.70;99.90
19999;DHT22;10160;50.926;4.374;2024-03-02T15:01:03;12.70;99.90
19999;DHT22;10160;50.926;4.374;2024-03-02T15:03:29;12.50;99.90
19999;DHT22;10160;50.926;4.374;2024-03-02T15:05:54;12.50;99.90
19999;DHT22;10160;50.926;4.374;2024-03-02T15:08:20;12.40;99.90
19999;DHT22;10160;50.926;4.374;2024-03-02T15:10:46;12.50;99.90
19999;DHT22;10160;50.926;4.374;2024-03-02T15:13:11;12.40;99.90
19999;DHT22;10160;50.926;4.374;2024-03-02T15:15:37;12.40;99.90
19999;DHT22;10160;50.926;4.374;2024-03-02T15:18:03;12.40;99.90
19999;DHT22;10160;50.926;4.374;2024-03-02T15:20:29;12.50;99.90
19999;DHT22;10160;50.926;4.374;2024-03-02T15:22:55;12.50;99.90
19999;DHT22;10160;50.926;4.374;2024-03-02T15:25:20;12.50;99.90
19999;DHT22;10160;50.926;4.374;2024-03-02T15:27:46;12.50;99.90
19999;DHT22;10160;50.926;4.374;2024-03-02T15:30:12;12.40;99.90
19999;DHT22;10160;50.926;4.374;2024-03-02T15:32:38;12.30;99.90
19999;DHT22;10160;50.926;4.374;2024-03-02T15:35:05;12.30;99.90
19999;DHT22;10160;50.926;4.374;2024-03-02T15:37:31;12.40;99.90
19999;DHT22;10160;50.926;4.374;2024-03-02T15:39:57;12.30;99.90
19999;DHT22;10160;50.926;4.374;2024-03-02T15:42:22;12.40;99.90
19999;DHT22;10160;50.926;4.374;2024-03-02T15:44:49;12.40;99.90
19999;DHT22;10160;50.926;4.374;2024-03-02T15:47:15;12.50;99.90
19999;DHT22;10160;50.926;4.374;2024-03-02T15:49:40;12.60;99.90
19999;DHT22;10160;50.926;4.374;2024-03-02T15:52:06;12.60;99.90
19999;DHT22;10160;50.926;4.374;2024-03-02T15:54:32;12.80;99.90